sensor_id;sensor_type;location;lat;lon;timestamp;temperature;humidity
15452;DHT22;7827;53.594;9.938;2023-07-16T00:00:30;20.90;1.00
15452;DHT22;7827;53.594;9.938;2023-07-16T00:02:58;20.90;1.00
15452;DHT22;7827;53.594;9.938;2023-07-16T00:05:27;20.90;1.00
15452;DHT22;7827;53.594;9.938;2023-07-16T00:07:56;21.00;1.00
15452;DHT22;7827;53.594;9.938;2023-07-16T00:10:25;21.00;1.00
15452;DHT22;7827;53.594;9.938;2023-07-16T00:12:53;21.00;1.00
15452;DHT22;7827;53.594;9.938;2023-07-16T00:15:21;20.90;1.00
15452;DHT22;7827;53.594;9.938;2023-07-16T00:17:50;20.90;1.00
15452;DHT22;7827;53.594;9.938;2023-07-16T00:20:18;20.90;1.00
15452;DHT22;7827;53.594;9.938;2023-07-16T00:22:47;20.80;1.00
15452;DHT22;7827;53.594;9.938;2023-07-16T00:25:17;20.80;1.00
15452;DHT22;7827;53.594;9.938;2023-07-16T00:27:45;20.80;1.00
15452;DHT22;7827;53.594;9.938;2023-07-16T00:30:15;20.80;1.00
15452;DHT22;7827;53.594;9.938;2023-07-16T00:32:43;20.80;1.00
15452;DHT22;7827;53.594;9.938;2023-07-16T00:35:11;20.80;1.00
15452;DHT22;7827;53.594;9.938;2023-07-16T00:37:40;20.70;1.00
15452;DHT22;7827;53.594;9.938;2023-07-16T00:40:09;20.70;1.00
15452;DHT22;7827;53.594;9.938;2023-07-16T00:42:39;20.80;1.00
15452;DHT22;7827;53.594;9.938;2023-07-16T00:45:11;20.80;1.00
15452;DHT22;7827;53.594;9.938;2023-07-16T00:47:42;20.70;1.00
15452;DHT22;7827;53.594;9.938;2023-07-16T00:50:11;20.70;1.00
15452;DHT22;7827;53.594;9.938;2023-07-16T00:52:40;20.60;1.00
15452;DHT22;7827;53.594;9.938;2023-07-16T00:55:11;20.80;1.00
15452;DHT22;7827;53.594;9.938;2023-07-16T00:57:41;20.80;1.00
15452;DHT22;7827;53.594;9.938;2023-07-16T01:00:10;21.00;1.00
15452;DHT22;7827;53.594;9.938;2023-07-16T01:02:40;21.00;1.00
15452;DHT22;7827;53.594;9.938;2023-07-16T01:05:08;21.00;1.00
15452;DHT22;7827;53.594;9.938;2023-07-16T01:07:37;21.00;1.00
15452;DHT22;7827;53.594;9.938;2023-07-16T01:10:16;20.90;1.00
15452;DHT22;7827;53.594;9.938;2023-07-16T01:12:47;20.80;1.00
15452;DHT22;7827;53.594;9.938;2023-07-16T01:15:15;20.90;1.00
15452;DHT22;7827;53.594;9.938;2023-07-16T01:17:44;21.00;1.00
15452;DHT22;7827;53.594;9.938;2023-07-16T01:20:12;21.00;1.00
15452;DHT22;7827;53.594;9.938;2023-07-16T01:23:08;20.80;1.00
15452;DHT22;7827;53.594;9.938;2023-07-16T01:26:05;20.80;1.00
15452;DHT22;7827;53.594;9.938;2023-07-16T01:29:04;20.70;1.00
15452;DHT22;7827;53.594;9.938;2023-07-16T01:31:49;20.70;1.00
15452;DHT22;7827;53.594;9.938;2023-07-16T01:34:19;20.60;1.00
15452;DHT22;7827;53.594;9.938;2023-07-16T01:36:49;20.60;1.00
15452;DHT22;7827;53.594;9.938;2023-07-16T01:39:18;20.60;1.00
15452;DHT22;7827;53.594;9.938;2023-07-16T01:41:47;20.60;1.00
15452;DHT22;7827;53.594;9.938;2023-07-16T01:44:17;20.50;1.00
15452;DHT22;7827;53.594;9.938;2023-07-16T01:46:49;20.60;1.00
15452;DHT22;7827;53.594;9.938;2023-07-16T01:49:30;20.70;1.00
15452;DHT22;7827;53.594;9.938;2023-07-16T01:52:01;20.70;1.00
15452;DHT22;7827;53.594;9.938;2023-07-16T01:54:30;20.70;1.00
15452;DHT22;7827;53.594;9.938;2023-07-16T01:56:58;20.70;1.00
15452;DHT22;7827;53.594;9.938;2023-07-16T01:59:28;20.60;1.00
15452;DHT22;7827;53.594;9.938;2023-07-16T02:01:56;20.60;99.90
15452;DHT22;7827;53.594;9.938;2023-07-16T02:04:25;20.50;1.00
15452;DHT22;7827;53.594;9.938;2023-07-16T02:06:53;20.50;99.90
15452;DHT22;7827;53.594;9.938;2023-07-16T02:09:22;20.40;1.00
15452;DHT22;7827;53.594;9.938;2023-07-16T02:11:52;20.40;99.90
15452;DHT22;7827;53.594;9.938;2023-07-16T02:14:20;20.40;99.90
15452;DHT22;7827;53.594;9.938;2023-07-16T02:16:50;20.30;99.90
15452;DHT22;7827;53.594;9.938;2023-07-16T02:19:18;20.60;99.90
15452;DHT22;7827;53.594;9.938;2023-07-16T02:21:46;20.70;99.90
15452;DHT22;7827;53.594;9.938;2023-07-16T02:24:15;20.70;99.90
15452;DHT22;7827;53.594;9.938;2023-07-16T02:26:43;20.60;99.90
15452;DHT22;7827;53.594;9.938;2023-07-16T02:29:11;20.60;1.00
15452;DHT22;7827;53.594;9.938;2023-07-16T02:31:40;20.70;95.70
15452;DHT22;7827;53.594;9.938;2023-07-16T02:34:12;20.50;99.90
15452;DHT22;7827;53.594;9.938;2023-07-16T02:36:40;20.50;1.00
15452;DHT22;7827;53.594;9.938;2023-07-16T02:39:08;20.40;45.90
15452;DHT22;7827;53.594;9.938;2023-07-16T02:41:37;20.40;77.40
15452;DHT22;7827;53.594;9.938;2023-07-16T02:44:06;20.40;1.00
15452;DHT22;7827;53.594;9.938;2023-07-16T02:46:34;20.30;99.90
15452;DHT22;7827;53.594;9.938;2023-07-16T02:49:03;20.30;99.90
15452;DHT22;7827;53.594;9.938;2023-07-16T02:51:33;20.30;99.90
15452;DHT22;7827;53.594;9.938;2023-07-16T02:54:01;20.30;99.90
15452;DHT22;7827;53.594;9.938;2023-07-16T02:56:30;20.30;99.90
15452;DHT22;7827;53.594;9.938;2023-07-16T02:58:58;20.30;99.90
15452;DHT22;7827;53.594;9.938;2023-07-16T03:01:26;20.40;99.90
15452;DHT22;7827;53.594;9.938;2023-07-16T03:03:55;20.50;99.90
15452;DHT22;7827;53.594;9.938;2023-07-16T03:06:24;20.50;99.90
15452;DHT22;7827;53.594;9.938;2023-07-16T03:08:53;20.60;36.00
15452;DHT22;7827;53.594;9.938;2023-07-16T03:11:22;20.60;1.00
15452;DHT22;7827;53.594;9.938;2023-07-16T03:13:50;20.50;1.00
15452;DHT22;7827;53.594;9.938;2023-07-16T03:16:19;20.50;99.90
15452;DHT22;7827;53.594;9.938;2023-07-16T03:18:47;20.40;17.80
15452;DHT22;7827;53.594;9.938;2023-07-16T03:21:16;20.40;99.90
15452;DHT22;7827;53.594;9.938;2023-07-16T03:23:44;20.40;99.90
15452;DHT22;7827;53.594;9.938;2023-07-16T03:26:14;20.30;99.90
15452;DHT22;7827;53.594;9.938;2023-07-16T03:28:42;20.30;99.90
15452;DHT22;7827;53.594;9.938;2023-07-16T03:31:13;20.20;99.90
15452;DHT22;7827;53.594;9.938;2023-07-16T03:33:44;20.20;99.90
15452;DHT22;7827;53.594;9.938;2023-07-16T03:36:13;20.30;99.90
15452;DHT22;7827;53.594;9.938;2023-07-16T03:38:41;20.20;99.90
15452;DHT22;7827;53.594;9.938;2023-07-16T03:41:10;20.20;99.90
15452;DHT22;7827;53.594;9.938;2023-07-16T03:43:39;20.30;99.90
15452;DHT22;7827;53.594;9.938;2023-07-16T03:46:16;20.30;99.90
15452;DHT22;7827;53.594;9.938;2023-07-16T03:48:45;20.20;99.90
15452;DHT22;7827;53.594;9.938;2023-07-16T03:51:13;20.30;99.90
15452;DHT22;7827;53.594;9.938;2023-07-16T03:53:42;20.30;99.90
15452;DHT22;7827;53.594;9.938;2023-07-16T03:56:10;20.30;1.00
15452;DHT22;7827;53.594;9.938;2023-07-16T03:58:40;20.20;99.90
15452;DHT22;7827;53.594;9.938;2023-07-16T04:01:09;20.00;99.90
15452;DHT22;7827;53.594;9.938;2023-07-16T04:03:37;20.00;99.90
15452;DHT22;7827;53.594;9.938;2023-07-16T04:06:07;19.90;99.90
15452;DHT22;7827;53.594;9.938;2023-07-16T04:08:37;20.00;99.90
15452;DHT22;7827;53.594;9.938;2023-07-16T04:11:06;20.00;1.00
15452;DHT22;7827;53.594;9.938;2023-07-16T04:13:35;20.10;1.00
15452;DHT22;7827;53.594;9.938;2023-07-16T04:16:05;20.00;1.00
15452;DHT22;7827;53.594;9.938;2023-07-16T04:18:33;20.10;1.00
15452;DHT22;7827;53.594;9.938;2023-07-16T04:21:02;20.20;1.00
15452;DHT22;7827;53.594;9.938;2023-07-16T04:23:30;20.20;1.00
15452;DHT22;7827;53.594;9.938;2023-07-16T04:25:58;20.20;1.00
15452;DHT22;7827;53.594;9.938;2023-07-16T04:28:27;20.20;1.00
15452;DHT22;7827;53.594;9.938;2023-07-16T04:30:55;20.50;99.90
15452;DHT22;7827;53.594;9.938;2023-07-16T04:33:25;20.90;99.90
15452;DHT22;7827;53.594;9.938;2023-07-16T04:35:53;21.00;1.00
15452;DHT22;7827;53.594;9.938;2023-07-16T04:38:22;21.40;99.90
15452;DHT22;7827;53.594;9.938;2023-07-16T04:40:50;21.70;99.90
15452;DHT22;7827;53.594;9.938;2023-07-16T04:43:18;21.70;99.90
15452;DHT22;7827;53.594;9.938;2023-07-16T04:45:47;21.60;99.90
15452;DHT22;7827;53.594;9.938;2023-07-16T04:48:15;21.70;99.90
15452;DHT22;7827;53.594;9.938;2023-07-16T04:50:45;22.00;99.90
15452;DHT22;7827;53.594;9.938;2023-07-16T04:53:13;22.20;1.00
15452;DHT22;7827;53.594;9.938;2023-07-16T04:55:44;22.20;1.00
15452;DHT22;7827;53.594;9.938;2023-07-16T04:58:13;22.10;99.90
15452;DHT22;7827;53.594;9.938;2023-07-16T05:00:42;22.20;99.90
15452;DHT22;7827;53.594;9.938;2023-07-16T05:03:10;22.20;16.90
15452;DHT22;7827;53.594;9.938;2023-07-16T05:05:38;22.10;99.90
15452;DHT22;7827;53.594;9.938;2023-07-16T05:08:08;22.20;1.00
15452;DHT22;7827;53.594;9.938;2023-07-16T05:10:36;22.30;89.70
15452;DHT22;7827;53.594;9.938;2023-07-16T05:13:04;22.40;1.00
15452;DHT22;7827;53.594;9.938;2023-07-16T05:15:33;22.50;99.90
15452;DHT22;7827;53.594;9.938;2023-07-16T05:18:01;22.50;99.90
15452;DHT22;7827;53.594;9.938;2023-07-16T05:20:30;22.60;99.90
15452;DHT22;7827;53.594;9.938;2023-07-16T05:22:58;22.70;52.70
15452;DHT22;7827;53.594;9.938;2023-07-16T05:25:28;22.50;99.90
15452;DHT22;7827;53.594;9.938;2023-07-16T05:27:58;22.30;1.00
15452;DHT22;7827;53.594;9.938;2023-07-16T05:30:27;22.10;60.80
15452;DHT22;7827;53.594;9.938;2023-07-16T05:32:55;22.20;99.90
15452;DHT22;7827;53.594;9.938;2023-07-16T05:35:23;22.20;1.00
15452;DHT22;7827;53.594;9.938;2023-07-16T05:37:51;22.20;99.90
15452;DHT22;7827;53.594;9.938;2023-07-16T05:40:20;22.20;1.00
15452;DHT22;7827;53.594;9.938;2023-07-16T05:42:49;22.30;1.00
15452;DHT22;7827;53.594;9.938;2023-07-16T05:45:18;22.40;1.00
15452;DHT22;7827;53.594;9.938;2023-07-16T05:47:46;22.40;99.90
15452;DHT22;7827;53.594;9.938;2023-07-16T05:50:15;22.40;1.00
15452;DHT22;7827;53.594;9.938;2023-07-16T05:52:43;22.30;1.00
15452;DHT22;7827;53.594;9.938;2023-07-16T05:55:12;22.30;1.00
15452;DHT22;7827;53.594;9.938;2023-07-16T05:57:40;22.10;99.90
15452;DHT22;7827;53.594;9.938;2023-07-16T06:00:11;22.10;99.90
15452;DHT22;7827;53.594;9.938;2023-07-16T06:02:42;22.20;1.00
15452;DHT22;7827;53.594;9.938;2023-07-16T06:05:11;22.20;99.90
15452;DHT22;7827;53.594;9.938;2023-07-16T06:07:39;22.30;1.00
15452;DHT22;7827;53.594;9.938;2023-07-16T06:10:08;22.30;60.60
15452;DHT22;7827;53.594;9.938;2023-07-16T06:12:37;22.40;1.00
15452;DHT22;7827;53.594;9.938;2023-07-16T06:15:06;22.50;1.00
15452;DHT22;7827;53.594;9.938;2023-07-16T06:17:36;22.60;99.90
15452;DHT22;7827;53.594;9.938;2023-07-16T06:20:06;22.50;1.00
15452;DHT22;7827;53.594;9.938;2023-07-16T06:22:36;22.40;99.90
15452;DHT22;7827;53.594;9.938;2023-07-16T06:25:06;22.40;1.00
15452;DHT22;7827;53.594;9.938;2023-07-16T06:27:37;22.50;99.90
15452;DHT22;7827;53.594;9.938;2023-07-16T06:30:06;22.50;1.00
15452;DHT22;7827;53.594;9.938;2023-07-16T06:32:37;22.50;1.00
15452;DHT22;7827;53.594;9.938;2023-07-16T06:35:06;22.30;1.00
15452;DHT22;7827;53.594;9.938;2023-07-16T06:37:36;22.20;93.30
15452;DHT22;7827;53.594;9.938;2023-07-16T06:40:05;22.30;99.90
15452;DHT22;7827;53.594;9.938;2023-07-16T06:42:35;22.30;99.90
15452;DHT22;7827;53.594;9.938;2023-07-16T06:45:04;22.30;99.90
15452;DHT22;7827;53.594;9.938;2023-07-16T06:47:33;22.30;99.90
15452;DHT22;7827;53.594;9.938;2023-07-16T06:50:03;22.50;1.00
15452;DHT22;7827;53.594;9.938;2023-07-16T06:52:32;22.40;1.00
15452;DHT22;7827;53.594;9.938;2023-07-16T06:55:01;22.30;1.00
15452;DHT22;7827;53.594;9.938;2023-07-16T06:57:29;22.30;99.90
15452;DHT22;7827;53.594;9.938;2023-07-16T06:59:57;22.30;1.00
15452;DHT22;7827;53.594;9.938;2023-07-16T07:02:26;22.20;99.90
15452;DHT22;7827;53.594;9.938;2023-07-16T07:04:54;22.30;99.90
15452;DHT22;7827;53.594;9.938;2023-07-16T07:07:24;22.50;1.00
15452;DHT22;7827;53.594;9.938;2023-07-16T07:09:52;22.60;99.90
15452;DHT22;7827;53.594;9.938;2023-07-16T07:12:20;22.70;73.90
15452;DHT22;7827;53.594;9.938;2023-07-16T07:14:48;22.80;1.00
15452;DHT22;7827;53.594;9.938;2023-07-16T07:17:17;22.70;1.00
15452;DHT22;7827;53.594;9.938;2023-07-16T07:19:45;22.60;1.00
15452;DHT22;7827;53.594;9.938;2023-07-16T07:22:13;22.50;1.00
15452;DHT22;7827;53.594;9.938;2023-07-16T07:24:43;22.50;1.00
15452;DHT22;7827;53.594;9.938;2023-07-16T07:27:12;22.50;1.00
15452;DHT22;7827;53.594;9.938;2023-07-16T07:29:40;22.60;1.00
15452;DHT22;7827;53.594;9.938;2023-07-16T07:32:09;22.70;1.00
15452;DHT22;7827;53.594;9.938;2023-07-16T07:34:38;22.60;1.00
15452;DHT22;7827;53.594;9.938;2023-07-16T07:37:07;22.70;1.00
15452;DHT22;7827;53.594;9.938;2023-07-16T07:39:35;22.70;1.00
15452;DHT22;7827;53.594;9.938;2023-07-16T07:42:06;22.50;1.00
15452;DHT22;7827;53.594;9.938;2023-07-16T07:44:34;22.60;1.00
15452;DHT22;7827;53.594;9.938;2023-07-16T07:47:03;22.40;1.00
15452;DHT22;7827;53.594;9.938;2023-07-16T07:49:32;22.40;1.00
15452;DHT22;7827;53.594;9.938;2023-07-16T07:52:01;22.60;1.00
15452;DHT22;7827;53.594;9.938;2023-07-16T07:54:31;22.60;1.00
15452;DHT22;7827;53.594;9.938;2023-07-16T07:57:01;22.60;1.00
15452;DHT22;7827;53.594;9.938;2023-07-16T07:59:33;22.60;99.90
15452;DHT22;7827;53.594;9.938;2023-07-16T08:02:02;22.50;1.00
15452;DHT22;7827;53.594;9.938;2023-07-16T08:04:30;22.50;1.00
15452;DHT22;7827;53.594;9.938;2023-07-16T08:06:59;22.80;1.00
15452;DHT22;7827;53.594;9.938;2023-07-16T08:09:27;22.90;1.00
15452;DHT22;7827;53.594;9.938;2023-07-16T08:11:56;23.20;99.90
15452;DHT22;7827;53.594;9.938;2023-07-16T08:14:24;23.30;1.00
15452;DHT22;7827;53.594;9.938;2023-07-16T08:16:54;23.10;1.00
15452;DHT22;7827;53.594;9.938;2023-07-16T08:19:22;23.10;86.50
15452;DHT22;7827;53.594;9.938;2023-07-16T08:21:50;23.20;1.00
15452;DHT22;7827;53.594;9.938;2023-07-16T08:24:19;23.10;1.00
15452;DHT22;7827;53.594;9.938;2023-07-16T08:26:47;23.00;41.00
15452;DHT22;7827;53.594;9.938;2023-07-16T08:29:16;22.90;99.90
15452;DHT22;7827;53.594;9.938;2023-07-16T08:31:44;22.80;99.90
15452;DHT22;7827;53.594;9.938;2023-07-16T08:34:14;23.00;99.90
15452;DHT22;7827;53.594;9.938;2023-07-16T08:36:42;23.20;1.00
15452;DHT22;7827;53.594;9.938;2023-07-16T08:39:11;23.10;1.00
15452;DHT22;7827;53.594;9.938;2023-07-16T08:41:39;22.90;1.00
15452;DHT22;7827;53.594;9.938;2023-07-16T08:44:07;22.70;1.00
15452;DHT22;7827;53.594;9.938;2023-07-16T08:46:36;22.50;6.30
15452;DHT22;7827;53.594;9.938;2023-07-16T08:49:07;22.40;99.90
15452;DHT22;7827;53.594;9.938;2023-07-16T08:51:38;22.40;99.90
15452;DHT22;7827;53.594;9.938;2023-07-16T08:54:07;22.30;99.90
15452;DHT22;7827;53.594;9.938;2023-07-16T08:56:35;22.20;99.90
15452;DHT22;7827;53.594;9.938;2023-07-16T08:59:03;22.20;99.90
15452;DHT22;7827;53.594;9.938;2023-07-16T09:01:32;22.20;27.70
15452;DHT22;7827;53.594;9.938;2023-07-16T09:04:00;22.10;1.00
15452;DHT22;7827;53.594;9.938;2023-07-16T09:06:29;22.20;1.00
15452;DHT22;7827;53.594;9.938;2023-07-16T09:08:59;22.30;1.00
15452;DHT22;7827;53.594;9.938;2023-07-16T09:11:27;22.50;1.00
15452;DHT22;7827;53.594;9.938;2023-07-16T09:13:56;22.70;1.00
15452;DHT22;7827;53.594;9.938;2023-07-16T09:16:24;22.90;99.90
15452;DHT22;7827;53.594;9.938;2023-07-16T09:18:52;23.00;99.90
15452;DHT22;7827;53.594;9.938;2023-07-16T09:21:21;23.30;99.90
15452;DHT22;7827;53.594;9.938;2023-07-16T09:23:49;23.30;99.90
15452;DHT22;7827;53.594;9.938;2023-07-16T09:26:19;23.40;58.00
15452;DHT22;7827;53.594;9.938;2023-07-16T09:28:48;23.60;37.50
15452;DHT22;7827;53.594;9.938;2023-07-16T09:31:16;23.70;7.80
15452;DHT22;7827;53.594;9.938;2023-07-16T09:33:47;23.80;5.40
15452;DHT22;7827;53.594;9.938;2023-07-16T09:36:23;23.80;1.00
15452;DHT22;7827;53.594;9.938;2023-07-16T09:38:53;23.60;45.20
15452;DHT22;7827;53.594;9.938;2023-07-16T09:41:24;23.50;1.00
15452;DHT22;7827;53.594;9.938;2023-07-16T09:43:53;23.50;1.00
15452;DHT22;7827;53.594;9.938;2023-07-16T09:46:21;23.60;1.00
15452;DHT22;7827;53.594;9.938;2023-07-16T09:48:50;23.70;1.00
15452;DHT22;7827;53.594;9.938;2023-07-16T09:51:19;23.80;1.00
15452;DHT22;7827;53.594;9.938;2023-07-16T09:53:50;23.80;1.00
15452;DHT22;7827;53.594;9.938;2023-07-16T09:56:20;23.70;1.00
15452;DHT22;7827;53.594;9.938;2023-07-16T09:58:51;23.30;1.00
15452;DHT22;7827;53.594;9.938;2023-07-16T10:01:20;23.20;1.00
15452;DHT22;7827;53.594;9.938;2023-07-16T10:03:50;23.00;7.50
15452;DHT22;7827;53.594;9.938;2023-07-16T10:06:18;23.10;99.90
15452;DHT22;7827;53.594;9.938;2023-07-16T10:08:49;23.30;1.00
15452;DHT22;7827;53.594;9.938;2023-07-16T10:11:18;23.50;1.00
15452;DHT22;7827;53.594;9.938;2023-07-16T10:13:51;23.50;1.00
15452;DHT22;7827;53.594;9.938;2023-07-16T10:16:20;23.50;1.00
15452;DHT22;7827;53.594;9.938;2023-07-16T10:18:51;23.60;1.00
15452;DHT22;7827;53.594;9.938;2023-07-16T10:21:23;23.90;1.00
15452;DHT22;7827;53.594;9.938;2023-07-16T10:23:57;24.00;1.00
15452;DHT22;7827;53.594;9.938;2023-07-16T10:26:27;23.90;1.00
15452;DHT22;7827;53.594;9.938;2023-07-16T10:28:58;23.90;1.00
15452;DHT22;7827;53.594;9.938;2023-07-16T10:31:26;23.90;1.00
15452;DHT22;7827;53.594;9.938;2023-07-16T10:34:01;23.90;1.00
15452;DHT22;7827;53.594;9.938;2023-07-16T10:36:37;23.80;1.00
15452;DHT22;7827;53.594;9.938;2023-07-16T10:39:05;23.80;1.00
15452;DHT22;7827;53.594;9.938;2023-07-16T10:41:34;23.50;1.00
15452;DHT22;7827;53.594;9.938;2023-07-16T10:44:04;23.20;1.00
15452;DHT22;7827;53.594;9.938;2023-07-16T10:46:36;23.30;1.00
15452;DHT22;7827;53.594;9.938;2023-07-16T10:49:05;23.40;1.00
15452;DHT22;7827;53.594;9.938;2023-07-16T10:51:34;23.30;1.00
15452;DHT22;7827;53.594;9.938;2023-07-16T10:54:02;23.20;1.00
15452;DHT22;7827;53.594;9.938;2023-07-16T10:56:35;23.00;1.00
15452;DHT22;7827;53.594;9.938;2023-07-16T10:59:10;22.90;1.00
15452;DHT22;7827;53.594;9.938;2023-07-16T11:01:39;23.20;1.00
15452;DHT22;7827;53.594;9.938;2023-07-16T11:04:08;23.50;1.00
15452;DHT22;7827;53.594;9.938;2023-07-16T11:06:36;23.70;1.00
15452;DHT22;7827;53.594;9.938;2023-07-16T11:09:08;23.80;1.00
15452;DHT22;7827;53.594;9.938;2023-07-16T11:11:37;23.90;1.00
15452;DHT22;7827;53.594;9.938;2023-07-16T11:14:08;23.80;1.00
15452;DHT22;7827;53.594;9.938;2023-07-16T11:16:38;23.80;1.00
15452;DHT22;7827;53.594;9.938;2023-07-16T11:19:07;23.80;99.90
15452;DHT22;7827;53.594;9.938;2023-07-16T11:21:36;23.90;99.90
15452;DHT22;7827;53.594;9.938;2023-07-16T11:24:08;24.10;1.00
15452;DHT22;7827;53.594;9.938;2023-07-16T11:26:37;24.00;1.00
15452;DHT22;7827;53.594;9.938;2023-07-16T11:29:14;24.10;1.00
15452;DHT22;7827;53.594;9.938;2023-07-16T11:31:43;24.20;1.00
15452;DHT22;7827;53.594;9.938;2023-07-16T11:34:13;24.40;1.00
15452;DHT22;7827;53.594;9.938;2023-07-16T11:36:42;24.50;1.00
15452;DHT22;7827;53.594;9.938;2023-07-16T11:39:11;24.50;99.90
15452;DHT22;7827;53.594;9.938;2023-07-16T11:41:39;24.50;99.90
15452;DHT22;7827;53.594;9.938;2023-07-16T11:44:08;24.70;99.90
15452;DHT22;7827;53.594;9.938;2023-07-16T11:46:38;24.80;99.90
15452;DHT22;7827;53.594;9.938;2023-07-16T11:49:06;24.90;99.90
15452;DHT22;7827;53.594;9.938;2023-07-16T11:51:35;24.90;99.90
15452;DHT22;7827;53.594;9.938;2023-07-16T11:54:03;24.80;99.90
15452;DHT22;7827;53.594;9.938;2023-07-16T11:56:31;24.50;99.90
15452;DHT22;7827;53.594;9.938;2023-07-16T11:58:59;24.50;99.90
15452;DHT22;7827;53.594;9.938;2023-07-16T12:01:28;24.60;99.90
15452;DHT22;7827;53.594;9.938;2023-07-16T12:03:58;24.90;99.90
15452;DHT22;7827;53.594;9.938;2023-07-16T12:06:26;24.90;99.90
15452;DHT22;7827;53.594;9.938;2023-07-16T12:08:55;24.90;99.90
15452;DHT22;7827;53.594;9.938;2023-07-16T12:11:24;24.80;99.90
15452;DHT22;7827;53.594;9.938;2023-07-16T12:13:52;24.70;99.90
15452;DHT22;7827;53.594;9.938;2023-07-16T12:16:20;24.40;99.90
15452;DHT22;7827;53.594;9.938;2023-07-16T12:18:49;24.20;99.90
15452;DHT22;7827;53.594;9.938;2023-07-16T12:21:19;24.00;99.90
15452;DHT22;7827;53.594;9.938;2023-07-16T12:23:48;24.10;99.90
15452;DHT22;7827;53.594;9.938;2023-07-16T12:26:17;24.10;99.90
15452;DHT22;7827;53.594;9.938;2023-07-16T12:28:46;24.10;99.90
15452;DHT22;7827;53.594;9.938;2023-07-16T12:31:14;24.20;99.90
15452;DHT22;7827;53.594;9.938;2023-07-16T12:33:44;24.40;99.90
15452;DHT22;7827;53.594;9.938;2023-07-16T12:36:13;24.50;99.90
15452;DHT22;7827;53.594;9.938;2023-07-16T12:38:44;24.60;99.90
15452;DHT22;7827;53.594;9.938;2023-07-16T12:41:12;24.60;99.90
15452;DHT22;7827;53.594;9.938;2023-07-16T12:43:42;24.80;99.90
15452;DHT22;7827;53.594;9.938;2023-07-16T12:46:10;24.90;99.90
15452;DHT22;7827;53.594;9.938;2023-07-16T12:48:39;25.00;99.90
15452;DHT22;7827;53.594;9.938;2023-07-16T12:51:09;24.80;99.90
15452;DHT22;7827;53.594;9.938;2023-07-16T12:53:37;24.60;99.90
15452;DHT22;7827;53.594;9.938;2023-07-16T12:56:07;24.50;99.90
15452;DHT22;7827;53.594;9.938;2023-07-16T12:58:36;24.50;99.90
15452;DHT22;7827;53.594;9.938;2023-07-16T13:01:04;24.60;99.90
15452;DHT22;7827;53.594;9.938;2023-07-16T13:03:33;24.70;99.90
15452;DHT22;7827;53.594;9.938;2023-07-16T13:06:01;24.80;99.90
15452;DHT22;7827;53.594;9.938;2023-07-16T13:08:30;24.90;99.90
15452;DHT22;7827;53.594;9.938;2023-07-16T13:10:59;25.00;99.90
15452;DHT22;7827;53.594;9.938;2023-07-16T13:13:29;24.80;99.90
15452;DHT22;7827;53.594;9.938;2023-07-16T13:15:57;24.80;99.90
15452;DHT22;7827;53.594;9.938;2023-07-16T13:18:26;24.80;99.90
15452;DHT22;7827;53.594;9.938;2023-07-16T13:20:54;24.60;99.90
15452;DHT22;7827;53.594;9.938;2023-07-16T13:23:23;24.50;99.90
15452;DHT22;7827;53.594;9.938;2023-07-16T13:25:51;24.40;99.90
15452;DHT22;7827;53.594;9.938;2023-07-16T13:28:20;24.30;99.90
15452;DHT22;7827;53.594;9.938;2023-07-16T13:30:51;24.30;99.90
15452;DHT22;7827;53.594;9.938;2023-07-16T13:33:19;24.10;99.90
15452;DHT22;7827;53.594;9.938;2023-07-16T13:35:49;24.00;99.90
15452;DHT22;7827;53.594;9.938;2023-07-16T13:38:18;23.90;1.00
15452;DHT22;7827;53.594;9.938;2023-07-16T13:40:46;23.90;99.90
15452;DHT22;7827;53.594;9.938;2023-07-16T13:43:14;23.90;99.90
15452;DHT22;7827;53.594;9.938;2023-07-16T13:45:43;24.00;99.90
15452;DHT22;7827;53.594;9.938;2023-07-16T13:48:12;24.20;99.90
15452;DHT22;7827;53.594;9.938;2023-07-16T13:50:41;24.50;99.90
15452;DHT22;7827;53.594;9.938;2023-07-16T13:53:09;24.80;99.90
15452;DHT22;7827;53.594;9.938;2023-07-16T13:55:38;24.80;99.90
15452;DHT22;7827;53.594;9.938;2023-07-16T13:58:06;24.80;99.90
15452;DHT22;7827;53.594;9.938;2023-07-16T14:00:34;24.80;99.90
15452;DHT22;7827;53.594;9.938;2023-07-16T14:03:03;24.80;99.90
15452;DHT22;7827;53.594;9.938;2023-07-16T14:05:33;24.50;99.90
15452;DHT22;7827;53.594;9.938;2023-07-16T14:08:05;24.30;99.90
15452;DHT22;7827;53.594;9.938;2023-07-16T14:10:36;24.00;99.90
15452;DHT22;7827;53.594;9.938;2023-07-16T14:13:04;23.90;1.00
15452;DHT22;7827;53.594;9.938;2023-07-16T14:15:33;24.00;1.00
15452;DHT22;7827;53.594;9.938;2023-07-16T14:18:01;23.90;1.00
15452;DHT22;7827;53.594;9.938;2023-07-16T14:20:30;23.90;1.00
15452;DHT22;7827;53.594;9.938;2023-07-16T14:23:00;23.90;1.00
15452;DHT22;7827;53.594;9.938;2023-07-16T14:25:30;24.00;1.00
15452;DHT22;7827;53.594;9.938;2023-07-16T14:27:58;23.90;1.00
15452;DHT22;7827;53.594;9.938;2023-07-16T14:30:27;23.80;1.00
15452;DHT22;7827;53.594;9.938;2023-07-16T14:32:56;23.90;1.00
15452;DHT22;7827;53.594;9.938;2023-07-16T14:35:26;24.00;1.00
15452;DHT22;7827;53.594;9.938;2023-07-16T14:38:05;23.90;1.00
15452;DHT22;7827;53.594;9.938;2023-07-16T14:40:33;24.00;1.00
15452;DHT22;7827;53.594;9.938;2023-07-16T14:43:03;24.10;1.00
15452;DHT22;7827;53.594;9.938;2023-07-16T14:45:33;24.20;1.00
15452;DHT22;7827;53.594;9.938;2023-07-16T14:48:02;24.30;1.00
15452;DHT22;7827;53.594;9.938;2023-07-16T14:50:32;24.30;1.00
15452;DHT22;7827;53.594;9.938;2023-07-16T14:53:00;24.30;1.00
15452;DHT22;7827;53.594;9.938;2023-07-16T14:55:30;24.40;1.00
15452;DHT22;7827;53.594;9.938;2023-07-16T14:57:58;24.30;99.90
15452;DHT22;7827;53.594;9.938;2023-07-16T15:00:26;24.40;1.00
15452;DHT22;7827;53.594;9.938;2023-07-16T15:02:55;24.30;1.00
15452;DHT22;7827;53.594;9.938;2023-07-16T15:05:23;24.60;1.00
15452;DHT22;7827;53.594;9.938;2023-07-16T15:07:51;24.90;1.00
15452;DHT22;7827;53.594;9.938;2023-07-16T15:10:20;25.00;99.90
15452;DHT22;7827;53.594;9.938;2023-07-16T15:12:49;25.00;99.90
15452;DHT22;7827;53.594;9.938;2023-07-16T15:15:18;25.00;99.90
15452;DHT22;7827;53.594;9.938;2023-07-16T15:17:46;25.00;99.90
15452;DHT22;7827;53.594;9.938;2023-07-16T15:20:15;25.00;99.90
15452;DHT22;7827;53.594;9.938;2023-07-16T15:22:44;25.00;99.90
15452;DHT22;7827;53.594;9.938;2023-07-16T15:25:13;25.00;99.90
15452;DHT22;7827;53.594;9.938;2023-07-16T15:27:41;25.10;99.90
15452;DHT22;7827;53.594;9.938;2023-07-16T15:30:12;25.20;99.90
15452;DHT22;7827;53.594;9.938;2023-07-16T15:32:41;25.20;99.90
15452;DHT22;7827;53.594;9.938;2023-07-16T15:35:09;25.10;99.90
15452;DHT22;7827;53.594;9.938;2023-07-16T15:37:37;25.10;99.90
15452;DHT22;7827;53.594;9.938;2023-07-16T15:40:12;25.00;99.90
15452;DHT22;7827;53.594;9.938;2023-07-16T15:42:43;25.00;99.90
15452;DHT22;7827;53.594;9.938;2023-07-16T15:45:12;25.00;99.90
15452;DHT22;7827;53.594;9.938;2023-07-16T15:47:43;25.00;99.90
15452;DHT22;7827;53.594;9.938;2023-07-16T15:50:12;24.80;99.90
15452;DHT22;7827;53.594;9.938;2023-07-16T15:52:42;24.50;99.90
15452;DHT22;7827;53.594;9.938;2023-07-16T15:55:11;24.30;99.90
15452;DHT22;7827;53.594;9.938;2023-07-16T15:57:39;24.10;99.90
15452;DHT22;7827;53.594;9.938;2023-07-16T16:00:09;24.00;1.00
15452;DHT22;7827;53.594;9.938;2023-07-16T16:02:43;23.90;99.90
15452;DHT22;7827;53.594;9.938;2023-07-16T16:05:13;23.90;1.00
15452;DHT22;7827;53.594;9.938;2023-07-16T16:07:43;23.90;1.00